sensor_id;sensor_type;location;lat;lon;timestamp;temperature;humidity
15394;DHT22;7795;47.986;11.868;2023-04-03T00:00:36;6.90;75.80
15394;DHT22;7795;47.986;11.868;2023-04-03T00:03:02;6.90;76.70
15394;DHT22;7795;47.986;11.868;2023-04-03T00:05:28;6.90;76.50
15394;DHT22;7795;47.986;11.868;2023-04-03T00:07:54;6.80;75.70
15394;DHT22;7795;47.986;11.868;2023-04-03T00:10:19;6.80;75.70
15394;DHT22;7795;47.986;11.868;2023-04-03T00:12:45;6.70;75.70
15394;DHT22;7795;47.986;11.868;2023-04-03T00:15:11;6.70;75.70
15394;DHT22;7795;47.986;11.868;2023-04-03T00:17:39;6.60;75.70
15394;DHT22;7795;47.986;11.868;2023-04-03T00:20:06;6.60;75.90
15394;DHT22;7795;47.986;11.868;2023-04-03T00:22:32;6.50;75.90
15394;DHT22;7795;47.986;11.868;2023-04-03T00:24:57;6.50;76.10
15394;DHT22;7795;47.986;11.868;2023-04-03T00:27:23;6.40;76.20
15394;DHT22;7795;47.986;11.868;2023-04-03T00:29:49;6.40;76.30
15394;DHT22;7795;47.986;11.868;2023-04-03T00:32:15;6.40;76.40
15394;DHT22;7795;47.986;11.868;2023-04-03T00:34:42;6.40;76.40
15394;DHT22;7795;47.986;11.868;2023-04-03T00:37:07;6.40;76.60
15394;DHT22;7795;47.986;11.868;2023-04-03T00:39:33;6.40;76.60
15394;DHT22;7795;47.986;11.868;2023-04-03T00:41:59;6.40;76.60
15394;DHT22;7795;47.986;11.868;2023-04-03T00:47:26;6.40;76.60
15394;DHT22;7795;47.986;11.868;2023-04-03T00:49:53;6.40;76.40
15394;DHT22;7795;47.986;11.868;2023-04-03T00:52:22;6.30;76.30
15394;DHT22;7795;47.986;11.868;2023-04-03T00:54:52;6.30;76.40
15394;DHT22;7795;47.986;11.868;2023-04-03T00:57:21;6.30;76.60
15394;DHT22;7795;47.986;11.868;2023-04-03T00:59:50;6.30;76.60
15394;DHT22;7795;47.986;11.868;2023-04-03T01:02:17;6.30;76.70
15394;DHT22;7795;47.986;11.868;2023-04-03T01:04:44;6.40;76.70
15394;DHT22;7795;47.986;11.868;2023-04-03T01:07:15;6.40;76.70
15394;DHT22;7795;47.986;11.868;2023-04-03T01:09:42;6.40;76.80
15394;DHT22;7795;47.986;11.868;2023-04-03T01:12:16;6.40;76.60
15394;DHT22;7795;47.986;11.868;2023-04-03T01:14:42;6.40;76.60
15394;DHT22;7795;47.986;11.868;2023-04-03T01:17:28;6.40;76.50
15394;DHT22;7795;47.986;11.868;2023-04-03T01:20:17;6.50;76.90
15394;DHT22;7795;47.986;11.868;2023-04-03T01:22:53;6.50;76.80
15394;DHT22;7795;47.986;11.868;2023-04-03T01:25:21;6.50;76.70
15394;DHT22;7795;47.986;11.868;2023-04-03T01:27:47;6.50;76.40
15394;DHT22;7795;47.986;11.868;2023-04-03T01:30:14;6.50;76.50
15394;DHT22;7795;47.986;11.868;2023-04-03T01:32:43;6.50;76.40
15394;DHT22;7795;47.986;11.868;2023-04-03T01:35:09;6.50;76.40
15394;DHT22;7795;47.986;11.868;2023-04-03T01:37:35;6.50;76.40
15394;DHT22;7795;47.986;11.868;2023-04-03T01:40:01;6.60;76.40
15394;DHT22;7795;47.986;11.868;2023-04-03T01:42:27;6.60;76.40
15394;DHT22;7795;47.986;11.868;2023-04-03T01:44:53;6.60;76.40
15394;DHT22;7795;47.986;11.868;2023-04-03T01:47:19;6.60;76.40
15394;DHT22;7795;47.986;11.868;2023-04-03T01:49:46;6.60;76.50
15394;DHT22;7795;47.986;11.868;2023-04-03T01:52:12;6.60;76.60
15394;DHT22;7795;47.986;11.868;2023-04-03T01:54:38;6.60;76.60
15394;DHT22;7795;47.986;11.868;2023-04-03T01:57:04;6.60;76.60
15394;DHT22;7795;47.986;11.868;2023-04-03T01:59:30;6.60;76.60
15394;DHT22;7795;47.986;11.868;2023-04-03T02:01:56;6.60;77.30
15394;DHT22;7795;47.986;11.868;2023-04-03T02:04:21;6.70;76.60
15394;DHT22;7795;47.986;11.868;2023-04-03T02:06:49;6.70;76.50
15394;DHT22;7795;47.986;11.868;2023-04-03T02:09:15;6.70;76.40
15394;DHT22;7795;47.986;11.868;2023-04-03T02:11:41;6.70;76.20
15394;DHT22;7795;47.986;11.868;2023-04-03T02:14:07;6.70;76.10
15394;DHT22;7795;47.986;11.868;2023-04-03T02:16:32;6.70;76.20
15394;DHT22;7795;47.986;11.868;2023-04-03T02:18:58;6.70;76.20
15394;DHT22;7795;47.986;11.868;2023-04-03T02:21:24;6.70;76.10
15394;DHT22;7795;47.986;11.868;2023-04-03T02:23:51;6.70;76.10
15394;DHT22;7795;47.986;11.868;2023-04-03T02:26:17;6.70;76.30
15394;DHT22;7795;47.986;11.868;2023-04-03T02:28:43;6.60;76.30
15394;DHT22;7795;47.986;11.868;2023-04-03T02:31:09;6.60;76.30
15394;DHT22;7795;47.986;11.868;2023-04-03T02:33:36;6.70;76.40
15394;DHT22;7795;47.986;11.868;2023-04-03T02:36:03;6.60;76.40
15394;DHT22;7795;47.986;11.868;2023-04-03T02:38:29;6.70;76.60
15394;DHT22;7795;47.986;11.868;2023-04-03T02:41:01;6.60;76.60
15394;DHT22;7795;47.986;11.868;2023-04-03T02:43:26;6.70;76.80
15394;DHT22;7795;47.986;11.868;2023-04-03T02:45:52;6.70;76.70
15394;DHT22;7795;47.986;11.868;2023-04-03T02:48:18;6.70;76.70
15394;DHT22;7795;47.986;11.868;2023-04-03T02:50:44;6.70;76.60
15394;DHT22;7795;47.986;11.868;2023-04-03T02:53:09;6.60;77.30
15394;DHT22;7795;47.986;11.868;2023-04-03T02:55:35;6.70;76.70
15394;DHT22;7795;47.986;11.868;2023-04-03T02:58:02;6.70;76.70
15394;DHT22;7795;47.986;11.868;2023-04-03T03:00:29;6.70;76.90
15394;DHT22;7795;47.986;11.868;2023-04-03T03:02:55;6.70;76.80
15394;DHT22;7795;47.986;11.868;2023-04-03T03:05:20;6.70;76.90
15394;DHT22;7795;47.986;11.868;2023-04-03T03:07:47;6.70;76.90
15394;DHT22;7795;47.986;11.868;2023-04-03T03:10:13;6.70;76.90
15394;DHT22;7795;47.986;11.868;2023-04-03T03:12:39;6.70;76.90
15394;DHT22;7795;47.986;11.868;2023-04-03T03:15:08;6.70;76.80
15394;DHT22;7795;47.986;11.868;2023-04-03T03:17:34;6.70;76.90
15394;DHT22;7795;47.986;11.868;2023-04-03T03:20:01;6.70;76.80
15394;DHT22;7795;47.986;11.868;2023-04-03T03:22:28;6.70;76.70
15394;DHT22;7795;47.986;11.868;2023-04-03T03:24:53;6.70;76.70
15394;DHT22;7795;47.986;11.868;2023-04-03T03:27:20;6.70;76.70
15394;DHT22;7795;47.986;11.868;2023-04-03T03:29:46;6.70;76.70
15394;DHT22;7795;47.986;11.868;2023-04-03T03:32:13;6.70;76.70
15394;DHT22;7795;47.986;11.868;2023-04-03T03:34:39;6.70;76.70
15394;DHT22;7795;47.986;11.868;2023-04-03T03:37:04;6.60;76.70
15394;DHT22;7795;47.986;11.868;2023-04-03T03:39:30;6.60;76.60
15394;DHT22;7795;47.986;11.868;2023-04-03T03:41:56;6.60;76.60
15394;DHT22;7795;47.986;11.868;2023-04-03T03:44:22;6.60;76.60
15394;DHT22;7795;47.986;11.868;2023-04-03T03:46:47;6.60;76.60
15394;DHT22;7795;47.986;11.868;2023-04-03T03:49:15;6.60;76.60
15394;DHT22;7795;47.986;11.868;2023-04-03T03:51:40;6.60;76.70
15394;DHT22;7795;47.986;11.868;2023-04-03T03:54:07;6.60;76.70
15394;DHT22;7795;47.986;11.868;2023-04-03T03:56:34;6.60;76.70
15394;DHT22;7795;47.986;11.868;2023-04-03T03:59:00;6.60;76.70
15394;DHT22;7795;47.986;11.868;2023-04-03T04:01:26;6.60;76.70
15394;DHT22;7795;47.986;11.868;2023-04-03T04:03:52;6.60;76.70
15394;DHT22;7795;47.986;11.868;2023-04-03T04:06:20;6.60;76.80
15394;DHT22;7795;47.986;11.868;2023-04-03T04:08:47;6.60;76.90
15394;DHT22;7795;47.986;11.868;2023-04-03T04:11:13;6.60;76.90
15394;DHT22;7795;47.986;11.868;2023-04-03T04:13:38;6.60;76.90
15394;DHT22;7795;47.986;11.868;2023-04-03T04:16:05;6.60;76.80
15394;DHT22;7795;47.986;11.868;2023-04-03T04:18:31;6.60;76.70
15394;DHT22;7795;47.986;11.868;2023-04-03T04:20:57;6.60;76.70
15394;DHT22;7795;47.986;11.868;2023-04-03T04:23:24;6.60;76.70
15394;DHT22;7795;47.986;11.868;2023-04-03T04:25:51;6.60;76.90
15394;DHT22;7795;47.986;11.868;2023-04-03T04:28:17;6.60;76.90
15394;DHT22;7795;47.986;11.868;2023-04-03T04:30:43;6.60;76.90
15394;DHT22;7795;47.986;11.868;2023-04-03T04:33:09;6.60;76.90
15394;DHT22;7795;47.986;11.868;2023-04-03T04:35:35;6.60;77.00
15394;DHT22;7795;47.986;11.868;2023-04-03T04:38:01;6.60;77.10
15394;DHT22;7795;47.986;11.868;2023-04-03T04:40:29;6.60;77.00
15394;DHT22;7795;47.986;11.868;2023-04-03T04:42:55;6.60;77.00
15394;DHT22;7795;47.986;11.868;2023-04-03T04:45:20;6.60;76.90
15394;DHT22;7795;47.986;11.868;2023-04-03T04:47:46;6.60;76.90
15394;DHT22;7795;47.986;11.868;2023-04-03T04:50:12;6.60;76.90
15394;DHT22;7795;47.986;11.868;2023-04-03T04:52:38;6.60;77.00
15394;DHT22;7795;47.986;11.868;2023-04-03T04:55:05;6.60;77.00
15394;DHT22;7795;47.986;11.868;2023-04-03T04:57:32;6.60;77.10
15394;DHT22;7795;47.986;11.868;2023-04-03T04:59:58;6.60;77.00
15394;DHT22;7795;47.986;11.868;2023-04-03T05:02:24;6.60;77.00
15394;DHT22;7795;47.986;11.868;2023-04-03T05:04:50;6.60;77.00
15394;DHT22;7795;47.986;11.868;2023-04-03T05:07:17;6.60;77.10
15394;DHT22;7795;47.986;11.868;2023-04-03T05:09:42;6.60;77.10
15394;DHT22;7795;47.986;11.868;2023-04-03T05:12:08;6.60;77.10
15394;DHT22;7795;47.986;11.868;2023-04-03T05:14:35;6.60;77.10
15394;DHT22;7795;47.986;11.868;2023-04-03T05:17:01;6.60;77.10
15394;DHT22;7795;47.986;11.868;2023-04-03T05:19:27;6.60;77.10
15394;DHT22;7795;47.986;11.868;2023-04-03T05:21:53;6.60;77.10
15394;DHT22;7795;47.986;11.868;2023-04-03T05:24:18;6.60;77.10
15394;DHT22;7795;47.986;11.868;2023-04-03T05:26:44;6.60;77.20
15394;DHT22;7795;47.986;11.868;2023-04-03T05:29:11;6.60;77.30
15394;DHT22;7795;47.986;11.868;2023-04-03T05:31:38;6.60;77.40
15394;DHT22;7795;47.986;11.868;2023-04-03T05:34:04;6.60;77.40
15394;DHT22;7795;47.986;11.868;2023-04-03T05:36:30;6.60;77.40
15394;DHT22;7795;47.986;11.868;2023-04-03T05:38:56;6.60;77.30
15394;DHT22;7795;47.986;11.868;2023-04-03T05:41:22;6.60;77.30
15394;DHT22;7795;47.986;11.868;2023-04-03T05:43:48;6.60;77.40
15394;DHT22;7795;47.986;11.868;2023-04-03T05:46:15;6.70;77.40
15394;DHT22;7795;47.986;11.868;2023-04-03T05:48:43;6.70;77.40
15394;DHT22;7795;47.986;11.868;2023-04-03T05:51:15;6.70;77.30
15394;DHT22;7795;47.986;11.868;2023-04-03T05:53:41;6.70;77.40
15394;DHT22;7795;47.986;11.868;2023-04-03T05:56:07;6.70;77.30
15394;DHT22;7795;47.986;11.868;2023-04-03T05:58:33;6.70;77.10
15394;DHT22;7795;47.986;11.868;2023-04-03T06:00:59;6.70;77.10
15394;DHT22;7795;47.986;11.868;2023-04-03T06:03:25;6.70;77.10
15394;DHT22;7795;47.986;11.868;2023-04-03T06:05:53;6.70;77.10
15394;DHT22;7795;47.986;11.868;2023-04-03T06:08:18;6.70;77.10
15394;DHT22;7795;47.986;11.868;2023-04-03T06:10:44;6.70;77.10
15394;DHT22;7795;47.986;11.868;2023-04-03T06:13:11;6.70;77.20
15394;DHT22;7795;47.986;11.868;2023-04-03T06:15:37;6.70;77.30
15394;DHT22;7795;47.986;11.868;2023-04-03T06:18:04;6.70;77.30
15394;DHT22;7795;47.986;11.868;2023-04-03T06:20:29;6.70;77.40
15394;DHT22;7795;47.986;11.868;2023-04-03T06:22:57;6.70;77.30
15394;DHT22;7795;47.986;11.868;2023-04-03T06:25:23;6.70;77.20
15394;DHT22;7795;47.986;11.868;2023-04-03T06:27:49;6.80;77.30
15394;DHT22;7795;47.986;11.868;2023-04-03T06:30:15;6.80;77.20
15394;DHT22;7795;47.986;11.868;2023-04-03T06:32:41;6.80;77.10
15394;DHT22;7795;47.986;11.868;2023-04-03T06:35:09;6.80;77.10
15394;DHT22;7795;47.986;11.868;2023-04-03T06:37:35;6.80;77.10
15394;DHT22;7795;47.986;11.868;2023-04-03T06:40:02;6.80;77.10
15394;DHT22;7795;47.986;11.868;2023-04-03T06:42:28;6.90;77.30
15394;DHT22;7795;47.986;11.868;2023-04-03T06:44:54;6.90;77.30
15394;DHT22;7795;47.986;11.868;2023-04-03T06:47:20;6.90;77.10
15394;DHT22;7795;47.986;11.868;2023-04-03T06:49:45;6.90;77.00
15394;DHT22;7795;47.986;11.868;2023-04-03T06:52:11;6.90;76.90
15394;DHT22;7795;47.986;11.868;2023-04-03T06:54:40;6.90;76.90
15394;DHT22;7795;47.986;11.868;2023-04-03T06:57:07;6.90;76.80
15394;DHT22;7795;47.986;11.868;2023-04-03T06:59:34;6.90;76.70
15394;DHT22;7795;47.986;11.868;2023-04-03T07:02:00;6.90;76.70
15394;DHT22;7795;47.986;11.868;2023-04-03T07:04:26;6.90;76.60
15394;DHT22;7795;47.986;11.868;2023-04-03T07:06:52;6.90;76.60
15394;DHT22;7795;47.986;11.868;2023-04-03T07:09:18;6.90;77.10
15394;DHT22;7795;47.986;11.868;2023-04-03T07:11:44;6.90;76.40
15394;DHT22;7795;47.986;11.868;2023-04-03T07:14:11;6.90;76.60
15394;DHT22;7795;47.986;11.868;2023-04-03T07:16:37;7.00;76.80
15394;DHT22;7795;47.986;11.868;2023-04-03T07:19:03;7.00;77.00
15394;DHT22;7795;47.986;11.868;2023-04-03T07:21:29;7.00;77.00
15394;DHT22;7795;47.986;11.868;2023-04-03T07:23:55;7.00;76.90
15394;DHT22;7795;47.986;11.868;2023-04-03T07:26:21;7.10;76.60
15394;DHT22;7795;47.986;11.868;2023-04-03T07:28:48;7.10;76.60
15394;DHT22;7795;47.986;11.868;2023-04-03T07:31:16;7.10;76.50
15394;DHT22;7795;47.986;11.868;2023-04-03T07:33:43;7.20;76.30
15394;DHT22;7795;47.986;11.868;2023-04-03T07:36:10;7.20;76.20
15394;DHT22;7795;47.986;11.868;2023-04-03T07:38:37;7.20;76.10
15394;DHT22;7795;47.986;11.868;2023-04-03T07:41:04;7.30;76.10
15394;DHT22;7795;47.986;11.868;2023-04-03T07:43:30;7.30;76.00
15394;DHT22;7795;47.986;11.868;2023-04-03T07:45:55;7.30;75.60
15394;DHT22;7795;47.986;11.868;2023-04-03T07:48:24;7.30;75.60
15394;DHT22;7795;47.986;11.868;2023-04-03T07:50:50;7.30;75.60
15394;DHT22;7795;47.986;11.868;2023-04-03T07:53:17;7.30;75.60
15394;DHT22;7795;47.986;11.868;2023-04-03T07:55:43;7.40;75.50
15394;DHT22;7795;47.986;11.868;2023-04-03T07:58:09;7.40;75.50
15394;DHT22;7795;47.986;11.868;2023-04-03T08:00:35;7.40;75.30
15394;DHT22;7795;47.986;11.868;2023-04-03T08:03:01;7.40;75.40
15394;DHT22;7795;47.986;11.868;2023-04-03T08:05:28;7.40;75.40
15394;DHT22;7795;47.986;11.868;2023-04-03T08:07:53;7.40;75.20
15394;DHT22;7795;47.986;11.868;2023-04-03T08:10:19;7.40;75.10
15394;DHT22;7795;47.986;11.868;2023-04-03T08:12:46;7.40;75.10
15394;DHT22;7795;47.986;11.868;2023-04-03T08:15:12;7.40;75.30
15394;DHT22;7795;47.986;11.868;2023-04-03T08:17:37;7.40;75.30
15394;DHT22;7795;47.986;11.868;2023-04-03T08:20:04;7.50;75.20
15394;DHT22;7795;47.986;11.868;2023-04-03T08:22:33;7.50;75.10
15394;DHT22;7795;47.986;11.868;2023-04-03T08:24:59;7.50;75.10
15394;DHT22;7795;47.986;11.868;2023-04-03T08:27:25;7.50;75.20
15394;DHT22;7795;47.986;11.868;2023-04-03T08:29:52;7.50;75.20
15394;DHT22;7795;47.986;11.868;2023-04-03T08:32:17;7.60;75.30
15394;DHT22;7795;47.986;11.868;2023-04-03T08:34:44;7.60;75.10
15394;DHT22;7795;47.986;11.868;2023-04-03T08:37:10;7.70;74.80
15394;DHT22;7795;47.986;11.868;2023-04-03T08:39:37;7.70;74.70
15394;DHT22;7795;47.986;11.868;2023-04-03T08:42:07;7.70;74.60
15394;DHT22;7795;47.986;11.868;2023-04-03T08:44:46;7.70;74.70
15394;DHT22;7795;47.986;11.868;2023-04-03T08:47:20;7.80;74.70
15394;DHT22;7795;47.986;11.868;2023-04-03T08:49:52;7.80;74.40
15394;DHT22;7795;47.986;11.868;2023-04-03T08:52:21;7.80;74.30
15394;DHT22;7795;47.986;11.868;2023-04-03T08:54:52;7.80;74.30
15394;DHT22;7795;47.986;11.868;2023-04-03T08:57:26;7.80;74.40
15394;DHT22;7795;47.986;11.868;2023-04-03T08:59:53;7.90;74.50
15394;DHT22;7795;47.986;11.868;2023-04-03T09:02:25;7.90;74.50
15394;DHT22;7795;47.986;11.868;2023-04-03T09:04:52;7.90;74.30
15394;DHT22;7795;47.986;11.868;2023-04-03T09:07:23;8.00;74.20
15394;DHT22;7795;47.986;11.868;2023-04-03T09:09:52;8.00;74.00
15394;DHT22;7795;47.986;11.868;2023-04-03T09:12:22;8.00;74.00
15394;DHT22;7795;47.986;11.868;2023-04-03T09:14:57;8.10;73.90
15394;DHT22;7795;47.986;11.868;2023-04-03T09:17:35;8.10;73.90
15394;DHT22;7795;47.986;11.868;2023-04-03T09:20:09;8.10;73.90
15394;DHT22;7795;47.986;11.868;2023-04-03T09:22:39;8.20;73.60
15394;DHT22;7795;47.986;11.868;2023-04-03T09:25:12;8.20;73.30
15394;DHT22;7795;47.986;11.868;2023-04-03T09:27:39;8.30;73.20
15394;DHT22;7795;47.986;11.868;2023-04-03T09:30:08;8.30;73.30
15394;DHT22;7795;47.986;11.868;2023-04-03T09:32:37;8.30;73.20
15394;DHT22;7795;47.986;11.868;2023-04-03T09:35:13;8.40;73.30
15394;DHT22;7795;47.986;11.868;2023-04-03T09:37:42;8.40;73.00
15394;DHT22;7795;47.986;11.868;2023-04-03T09:40:36;8.40;73.00
15394;DHT22;7795;47.986;11.868;2023-04-03T09:43:20;8.50;72.50
15394;DHT22;7795;47.986;11.868;2023-04-03T09:45:48;8.50;72.60
15394;DHT22;7795;47.986;11.868;2023-04-03T09:48:17;8.60;72.80
15394;DHT22;7795;47.986;11.868;2023-04-03T09:50:54;8.60;72.50
15394;DHT22;7795;47.986;11.868;2023-04-03T09:53:35;8.60;71.90
15394;DHT22;7795;47.986;11.868;2023-04-03T09:56:04;8.60;71.60
15394;DHT22;7795;47.986;11.868;2023-04-03T09:58:32;8.60;71.60
15394;DHT22;7795;47.986;11.868;2023-04-03T10:01:00;8.50;71.70
15394;DHT22;7795;47.986;11.868;2023-04-03T10:03:30;8.50;72.00
15394;DHT22;7795;47.986;11.868;2023-04-03T10:05:56;8.50;72.30
15394;DHT22;7795;47.986;11.868;2023-04-03T10:08:26;8.50;72.50
15394;DHT22;7795;47.986;11.868;2023-04-03T10:11:12;8.50;72.60
15394;DHT22;7795;47.986;11.868;2023-04-03T10:13:50;8.50;72.40
15394;DHT22;7795;47.986;11.868;2023-04-03T10:16:18;8.50;72.00
15394;DHT22;7795;47.986;11.868;2023-04-03T10:18:49;8.60;72.90
15394;DHT22;7795;47.986;11.868;2023-04-03T10:21:29;8.50;71.90
15394;DHT22;7795;47.986;11.868;2023-04-03T10:23:59;8.50;71.90
15394;DHT22;7795;47.986;11.868;2023-04-03T10:26:37;8.50;71.80
15394;DHT22;7795;47.986;11.868;2023-04-03T10:29:16;8.50;71.60
15394;DHT22;7795;47.986;11.868;2023-04-03T10:31:51;8.40;71.60
15394;DHT22;7795;47.986;11.868;2023-04-03T10:34:23;8.40;71.60
15394;DHT22;7795;47.986;11.868;2023-04-03T10:36:53;8.40;71.70
15394;DHT22;7795;47.986;11.868;2023-04-03T10:39:28;8.40;71.70
15394;DHT22;7795;47.986;11.868;2023-04-03T10:42:03;8.40;71.80
15394;DHT22;7795;47.986;11.868;2023-04-03T10:44:38;8.40;71.60
15394;DHT22;7795;47.986;11.868;2023-04-03T10:47:11;8.40;71.50
15394;DHT22;7795;47.986;11.868;2023-04-03T10:49:44;8.50;71.60
15394;DHT22;7795;47.986;11.868;2023-04-03T10:52:17;8.50;71.20
15394;DHT22;7795;47.986;11.868;2023-04-03T10:54:49;8.50;70.80
15394;DHT22;7795;47.986;11.868;2023-04-03T10:57:22;8.60;70.70
15394;DHT22;7795;47.986;11.868;2023-04-03T10:59:51;8.60;70.30
15394;DHT22;7795;47.986;11.868;2023-04-03T11:02:24;8.60;70.30
15394;DHT22;7795;47.986;11.868;2023-04-03T11:04:53;8.70;69.60
15394;DHT22;7795;47.986;11.868;2023-04-03T11:07:22;8.70;69.60
15394;DHT22;7795;47.986;11.868;2023-04-03T11:09:52;8.70;69.40
15394;DHT22;7795;47.986;11.868;2023-04-03T11:12:24;8.70;69.60
15394;DHT22;7795;47.986;11.868;2023-04-03T11:14:53;8.70;69.40
15394;DHT22;7795;47.986;11.868;2023-04-03T11:17:27;8.70;69.30
15394;DHT22;7795;47.986;11.868;2023-04-03T11:20:00;8.70;68.80
15394;DHT22;7795;47.986;11.868;2023-04-03T11:22:29;8.60;69.10
15394;DHT22;7795;47.986;11.868;2023-04-03T11:25:02;8.60;69.90
15394;DHT22;7795;47.986;11.868;2023-04-03T11:27:35;8.50;70.40
15394;DHT22;7795;47.986;11.868;2023-04-03T11:30:06;8.50;70.60
15394;DHT22;7795;47.986;11.868;2023-04-03T11:32:48;8.50;70.70
15394;DHT22;7795;47.986;11.868;2023-04-03T11:35:18;8.50;70.90
15394;DHT22;7795;47.986;11.868;2023-04-03T11:37:46;8.60;71.00
15394;DHT22;7795;47.986;11.868;2023-04-03T11:40:22;8.60;70.90
15394;DHT22;7795;47.986;11.868;2023-04-03T11:42:52;8.60;70.70
15394;DHT22;7795;47.986;11.868;2023-04-03T11:45:31;8.70;71.70
15394;DHT22;7795;47.986;11.868;2023-04-03T11:51:40;8.70;70.90
15394;DHT22;7795;47.986;11.868;2023-04-03T11:54:46;8.70;70.90
15394;DHT22;7795;47.986;11.868;2023-04-03T11:57:47;8.70;71.10
15394;DHT22;7795;47.986;11.868;2023-04-03T12:00:50;8.70;70.50
15394;DHT22;7795;47.986;11.868;2023-04-03T12:03:56;8.60;69.80
15394;DHT22;7795;47.986;11.868;2023-04-03T12:07:11;8.50;69.20
15394;DHT22;7795;47.986;11.868;2023-04-03T12:10:01;8.30;69.00
15394;DHT22;7795;47.986;11.868;2023-04-03T12:12:30;8.20;69.40
15394;DHT22;7795;47.986;11.868;2023-04-03T12:18:37;8.00;69.90
15394;DHT22;7795;47.986;11.868;2023-04-03T12:21:06;7.90;70.20
15394;DHT22;7795;47.986;11.868;2023-04-03T12:23:35;7.80;70.50
15394;DHT22;7795;47.986;11.868;2023-04-03T12:26:04;7.80;70.80
15394;DHT22;7795;47.986;11.868;2023-04-03T12:28:37;7.80;71.10
15394;DHT22;7795;47.986;11.868;2023-04-03T12:31:05;7.80;71.30
15394;DHT22;7795;47.986;11.868;2023-04-03T12:33:44;7.80;71.40
15394;DHT22;7795;47.986;11.868;2023-04-03T12:36:17;7.90;71.50
15394;DHT22;7795;47.986;11.868;2023-04-03T12:39:09;7.90;71.60
15394;DHT22;7795;47.986;11.868;2023-04-03T12:41:45;8.00;71.60
15394;DHT22;7795;47.986;11.868;2023-04-03T12:44:37;8.00;71.60
15394;DHT22;7795;47.986;11.868;2023-04-03T12:47:16;8.10;71.40
15394;DHT22;7795;47.986;11.868;2023-04-03T12:49:45;8.10;71.30
15394;DHT22;7795;47.986;11.868;2023-04-03T12:52:20;8.20;71.30
15394;DHT22;7795;47.986;11.868;2023-04-03T12:54:50;8.20;71.00
15394;DHT22;7795;47.986;11.868;2023-04-03T12:57:18;8.30;71.10
15394;DHT22;7795;47.986;11.868;2023-04-03T12:59:45;8.30;71.10
15394;DHT22;7795;47.986;11.868;2023-04-03T13:02:20;8.30;71.00
15394;DHT22;7795;47.986;11.868;2023-04-03T13:04:47;8.40;70.60
15394;DHT22;7795;47.986;11.868;2023-04-03T13:07:25;8.50;70.60
15394;DHT22;7795;47.986;11.868;2023-04-03T13:10:10;8.50;70.30
15394;DHT22;7795;47.986;11.868;2023-04-03T13:12:46;8.50;70.30
15394;DHT22;7795;47.986;11.868;2023-04-03T13:15:14;8.60;70.60
15394;DHT22;7795;47.986;11.868;2023-04-03T13:17:41;8.60;70.50
15394;DHT22;7795;47.986;11.868;2023-04-03T13:20:14;8.60;70.30
15394;DHT22;7795;47.986;11.868;2023-04-03T13:22:47;8.60;70.20
15394;DHT22;7795;47.986;11.868;2023-04-03T13:25:17;8.70;70.50
15394;DHT22;7795;47.986;11.868;2023-04-03T13:27:44;8.70;70.50
15394;DHT22;7795;47.986;11.868;2023-04-03T13:30:23;8.80;70.60
15394;DHT22;7795;47.986;11.868;2023-04-03T13:32:50;8.80;70.50
15394;DHT22;7795;47.986;11.868;2023-04-03T13:35:32;8.90;70.60
15394;DHT22;7795;47.986;11.868;2023-04-03T13:38:00;9.00;70.00
15394;DHT22;7795;47.986;11.868;2023-04-03T13:40:28;9.00;70.20
15394;DHT22;7795;47.986;11.868;2023-04-03T13:43:02;9.10;69.90
15394;DHT22;7795;47.986;11.868;2023-04-03T13:45:29;9.20;69.40
15394;DHT22;7795;47.986;11.868;2023-04-03T13:48:09;9.20;69.40
15394;DHT22;7795;47.986;11.868;2023-04-03T13:50:52;9.30;68.90
15394;DHT22;7795;47.986;11.868;2023-04-03T13:53:18;9.40;68.50
15394;DHT22;7795;47.986;11.868;2023-04-03T13:55:56;9.40;68.90
15394;DHT22;7795;47.986;11.868;2023-04-03T13:58:24;9.40;68.40
15394;DHT22;7795;47.986;11.868;2023-04-03T14:00:53;9.50;68.70
15394;DHT22;7795;47.986;11.868;2023-04-03T14:03:21;9.50;68.60
15394;DHT22;7795;47.986;11.868;2023-04-03T14:05:48;9.50;68.50
15394;DHT22;7795;47.986;11.868;2023-04-03T14:08:13;9.60;68.40
15394;DHT22;7795;47.986;11.868;2023-04-03T14:10:39;9.60;68.40
15394;DHT22;7795;47.986;11.868;2023-04-03T14:13:10;9.60;68.30
15394;DHT22;7795;47.986;11.868;2023-04-03T14:15:36;9.60;68.20
15394;DHT22;7795;47.986;11.868;2023-04-03T14:18:03;9.70;68.30
15394;DHT22;7795;47.986;11.868;2023-04-03T14:20:28;9.70;68.20
15394;DHT22;7795;47.986;11.868;2023-04-03T14:22:55;9.70;67.90
15394;DHT22;7795;47.986;11.868;2023-04-03T14:25:21;9.70;67.80
15394;DHT22;7795;47.986;11.868;2023-04-03T14:27:50;9.70;67.60
15394;DHT22;7795;47.986;11.868;2023-04-03T14:30:21;9.70;67.50
15394;DHT22;7795;47.986;11.868;2023-04-03T14:32:47;9.70;67.30
15394;DHT22;7795;47.986;11.868;2023-04-03T14:35:13;9.70;67.40
15394;DHT22;7795;47.986;11.868;2023-04-03T14:37:40;9.70;67.40
15394;DHT22;7795;47.986;11.868;2023-04-03T14:40:11;9.70;67.30
15394;DHT22;7795;47.986;11.868;2023-04-03T14:42:38;9.60;67.10
15394;DHT22;7795;47.986;11.868;2023-04-03T14:45:06;9.70;67.20
15394;DHT22;7795;47.986;11.868;2023-04-03T14:47:37;9.70;67.30
15394;DHT22;7795;47.986;11.868;2023-04-03T14:50:11;9.70;67.20
15394;DHT22;7795;47.986;11.868;2023-04-03T14:52:38;9.70;67.00
15394;DHT22;7795;47.986;11.868;2023-04-03T14:55:05;9.70;67.00
15394;DHT22;7795;47.986;11.868;2023-04-03T14:57:31;9.70;66.90
15394;DHT22;7795;47.986;11.868;2023-04-03T14:59:57;9.70;66.90
15394;DHT22;7795;47.986;11.868;2023-04-03T15:02:29;9.70;66.90
15394;DHT22;7795;47.986;11.868;2023-04-03T15:04:57;9.70;66.60
15394;DHT22;7795;47.986;11.868;2023-04-03T15:07:24;9.80;66.60
15394;DHT22;7795;47.986;11.868;2023-04-03T15:09:51;9.80;66.60
15394;DHT22;7795;47.986;11.868;2023-04-03T15:12:17;9.80;66.10
15394;DHT22;7795;47.986;11.868;2023-04-03T15:14:42;9.80;65.50
15394;DHT22;7795;47.986;11.868;2023-04-03T15:17:12;9.80;65.10
15394;DHT22;7795;47.986;11.868;2023-04-03T15:19:39;9.70;64.60
15394;DHT22;7795;47.986;11.868;2023-04-03T15:22:08;9.70;64.60
15394;DHT22;7795;47.986;11.868;2023-04-03T15:24:34;9.70;64.10
15394;DHT22;7795;47.986;11.868;2023-04-03T15:27:00;9.70;64.10
15394;DHT22;7795;47.986;11.868;2023-04-03T15:29:27;9.70;64.20
15394;DHT22;7795;47.986;11.868;2023-04-03T15:31:52;9.70;64.20
15394;DHT22;7795;47.986;11.868;2023-04-03T15:34:18;9.60;64.00
15394;DHT22;7795;47.986;11.868;2023-04-03T15:36:44;9.60;63.90
15394;DHT22;7795;47.986;11.868;2023-04-03T15:39:12;9.60;63.70
15394;DHT22;7795;47.986;11.868;2023-04-03T15:41:38;9.60;63.30
15394;DHT22;7795;47.986;11.868;2023-04-03T15:44:04;9.60;63.40
15394;DHT22;7795;47.986;11.868;2023-04-03T15:46:30;9.50;63.30
15394;DHT22;7795;47.986;11.868;2023-04-03T15:48:56;9.50;63.20
15394;DHT22;7795;47.986;11.868;2023-04-03T15:51:22;9.50;63.20
15394;DHT22;7795;47.986;11.868;2023-04-03T15:53:47;9.50;63.00
15394;DHT22;7795;47.986;11.868;2023-04-03T15:56:14;9.50;63.00
15394;DHT22;7795;47.986;11.868;2023-04-03T15:58:40;9.50;63.00
15394;DHT22;7795;47.986;11.868;2023-04-03T16:01:08;9.50;62.80
15394;DHT22;7795;47.986;11.868;2023-04-03T16:03:34;9.50;62.40
15394;DHT22;7795;47.986;11.868;2023-04-03T16:06:00;9.50;62.40